Time;durP1;ratioP1;P1;durP2;ratioP2;P2;SDS_P1;SDS_P2;PMS_P1;PMS_P2;Temp;Humidity;BMP_temperature;BMP_pressure;BME280_temperature;BME280_humidity;BME280_pressure;Samples;Min_cycle;Max_cycle;Signal;HPM_P1;HPM_P2
2022/04/25 00:02:07;;;;;;;18.98;9.27;;;8.60;99.90;;;;;;4949615;28;20054;-82
2022/04/25 00:04:34;;;;;;;17.13;9.30;;;8.60;99.90;;;;;;4908521;28;246130;-81
2022/04/25 00:07:04;;;;;;;16.20;8.57;;;8.70;99.90;;;;;;4951717;28;20050;-82
2022/04/25 00:09:33;;;;;;;;;;;8.70;99.90;;;;;;4812637;28;2996833;-81
2022/04/25 00:12:03;;;;;;;14.95;8.90;;;8.70;99.90;;;;;;4951566;28;19921;-83
2022/04/25 00:14:29;;;;;;;17.88;9.43;;;8.70;99.90;;;;;;4922184;28;323885;-82
2022/04/25 00:16:56;;;;;;;19.40;9.80;;;8.70;99.90;;;;;;4938519;28;20154;-82
2022/04/25 00:19:23;;;;;;;20.67;10.75;;;8.70;99.90;;;;;;4925784;28;129610;-83
2022/04/25 00:21:51;;;;;;;16.60;10.75;;;8.70;99.90;;;;;;4952303;28;20073;-82
2022/04/25 00:24:21;;;;;;;18.75;11.00;;;8.70;99.90;;;;;;4915334;28;20042;-81
2022/04/25 00:26:48;;;;;;;17.17;11.57;;;8.70;99.90;;;;;;4946838;28;20050;-81
2022/04/25 00:29:16;;;;;;;20.25;11.07;;;8.70;99.90;;;;;;4933322;28;31283;-81
2022/04/25 00:31:47;;;;;;;21.58;11.80;;;8.60;99.90;;;;;;4958588;28;20476;-81
2022/04/25 00:34:13;;;;;;;23.75;12.48;;;8.60;99.90;;;;;;4928913;28;85846;-82
2022/04/25 00:36:40;;;;;;;21.92;11.70;;;8.60;99.90;;;;;;4952551;28;20063;-81
2022/04/25 00:39:09;;;;;;;18.67;11.35;;;8.60;99.90;;;;;;4914732;28;98146;-81
2022/04/25 00:41:35;;;;;;;19.67;11.63;;;8.60;99.90;;;;;;4942506;28;20053;-81
2022/04/25 00:44:01;;;;;;;24.02;12.68;;;8.60;99.90;;;;;;4928354;28;125434;-81
2022/04/25 00:46:28;;;;;;;22.08;11.93;;;8.60;99.90;;;;;;4964002;28;20378;-81
2022/04/25 00:48:54;;;;;;;24.33;12.77;;;8.60;99.90;;;;;;4942751;28;147379;-82
2022/04/25 00:51:26;;;;;;;23.55;12.98;;;8.70;99.90;;;;;;4981794;28;20130;-83
2022/04/25 00:54:02;;;;;;;21.85;12.73;;;8.70;99.90;;;;;;4929782;28;20042;-83
2022/04/25 00:56:38;;;;;;;19.02;11.43;;;8.70;99.90;;;;;;4960610;28;20690;-81
2022/04/25 00:59:24;;;;;;;26.00;13.47;;;8.70;99.90;;;;;;4926582;28;253178;-82
2022/04/25 01:01:59;;;;;;;23.27;13.20;;;8.70;99.90;;;;;;4955644;28;20039;-83
2022/04/25 01:04:28;;;;;;;25.23;13.50;;;8.60;99.90;;;;;;4892068;28;208492;-83
2022/04/25 01:07:09;;;;;;;24.52;13.98;;;8.60;99.90;;;;;;4943112;28;20050;-82
2022/04/25 01:09:49;;;;;;;20.48;13.32;;;8.60;99.90;;;;;;4615066;28;8997433;-82
2022/04/25 01:12:27;;;;;;;22.27;13.35;;;8.60;99.90;;;;;;4961831;28;20051;-83
2022/04/25 01:15:21;;;;;;;25.40;13.77;;;8.50;99.90;;;;;;4919516;28;81794;-83
2022/04/25 01:18:03;;;;;;;25.38;14.23;;;8.50;99.90;;;;;;4983789;28;20051;-83
2022/04/25 01:20:33;;;;;;;23.90;13.80;;;8.40;99.90;;;;;;4614324;28;8998708;-84
2022/04/25 01:28:45;;;;;;;26.65;15.57;;;8.30;99.90;;;;;;4962074;28;20049;-83
2022/04/25 01:31:17;;;;;;;21.70;12.90;;;8.30;99.90;;;;;;4924723;28;153575;-83
2022/04/25 01:33:50;;;;;;;22.02;14.10;;;8.20;99.90;;;;;;4950373;28;20527;-83
2022/04/25 01:36:25;;;;;;;23.98;14.52;;;8.20;99.90;;;;;;4951354;28;20043;-83
2022/04/25 01:38:57;;;;;;;24.40;15.02;;;8.20;99.90;;;;;;4936030;28;20043;-83
2022/04/25 01:41:23;;;;;;;23.60;14.98;;;8.20;99.90;;;;;;4925396;28;20047;-82
2022/04/25 01:43:56;;;;;;;24.13;15.18;;;8.20;99.90;;;;;;4925972;28;245475;-82
2022/04/25 01:46:27;;;;;;;25.35;14.18;;;8.10;99.90;;;;;;4963375;28;20055;-82
2022/04/25 01:49:01;;;;;;;22.90;14.75;;;8.10;99.90;;;;;;4904675;28;1211521;-83
2022/04/25 01:51:31;;;;;;;23.23;14.93;;;8.10;99.90;;;;;;4955479;28;20286;-82
2022/04/25 01:54:09;;;;;;;25.50;14.80;;;8.10;99.90;;;;;;4896061;28;215274;-83
2022/04/25 01:56:35;;;;;;;23.08;14.68;;;8.10;99.90;;;;;;4905310;29;20051;-83
2022/04/25 01:59:16;;;;;;;24.15;14.07;;;8.00;99.90;;;;;;4867080;28;50926;-85
2022/04/25 02:01:53;;;;;;;21.10;14.25;;;8.00;99.90;;;;;;4931570;29;20170;-83
2022/04/25 02:04:29;;;;;;;23.45;13.55;;;8.00;99.90;;;;;;4849634;29;95874;-84
2022/04/25 02:07:01;;;;;;;23.33;14.38;;;8.00;99.90;;;;;;4897092;29;20051;-82
2022/04/25 02:09:33;;;;;;;27.90;14.45;;;7.90;99.90;;;;;;4799092;28;3046928;-81
2022/04/25 02:12:00;;;;;;;21.63;14.07;;;7.90;99.90;;;;;;4911904;29;20047;-82
2022/04/25 02:14:32;;;;;;;23.85;13.45;;;7.80;99.90;;;;;;4891565;28;66147;-83
2022/04/25 02:17:08;;;;;;;25.55;13.77;;;7.80;99.90;;;;;;4918054;29;20067;-82
2022/04/25 02:19:40;;;;;;;22.45;13.55;;;7.70;99.90;;;;;;4879504;29;186365;-81
2022/04/25 02:22:13;;;;;;;21.73;13.25;;;7.60;99.90;;;;;;4929513;29;20052;-83
2022/04/25 02:24:57;;;;;;;24.80;13.15;;;7.60;99.90;;;;;;4912053;28;172051;-82
2022/04/25 02:27:29;;;;;;;24.83;12.98;;;7.60;99.90;;;;;;4975417;28;20051;-82
2022/04/25 02:30:02;;;;;;;22.05;13.05;;;7.60;99.90;;;;;;4930876;28;42165;-82
2022/04/25 02:32:31;;;;;;;20.90;12.80;;;7.50;99.90;;;;;;4975370;28;20061;-82
2022/04/25 02:35:01;;;;;;;25.65;14.75;;;7.60;99.90;;;;;;4912945;28;242460;-83
2022/04/25 02:37:31;;;;;;;21.17;14.13;;;7.60;99.90;;;;;;4967041;28;20059;-83
2022/04/25 02:40:01;;;;;;;22.30;13.70;;;7.60;99.90;;;;;;4908668;28;220841;-83
2022/04/25 02:42:35;;;;;;;23.75;13.93;;;7.60;99.90;;;;;;4948810;28;20513;-83
2022/04/25 02:45:11;;;;;;;22.83;14.38;;;7.50;99.90;;;;;;4928500;28;238386;-82
2022/04/25 02:47:41;;;;;;;24.90;14.50;;;7.60;99.90;;;;;;4963056;28;20436;-82
2022/04/25 02:50:17;;;;;;;22.77;13.85;;;7.60;99.90;;;;;;4916875;28;61856;-83
2022/04/25 02:52:55;;;;;;;21.70;13.60;;;7.70;99.90;;;;;;4972355;28;20054;-82
2022/04/25 02:55:24;;;;;;;23.30;13.65;;;7.70;99.90;;;;;;4914985;28;202206;-82
2022/04/25 02:57:54;;;;;;;24.52;13.63;;;7.70;99.90;;;;;;4974752;28;20066;-83
2022/04/25 03:00:23;;;;;;;26.67;14.30;;;7.70;99.90;;;;;;4938856;28;28564;-83
2022/04/25 03:02:50;;;;;;;29.45;13.98;;;7.80;99.90;;;;;;4971319;28;20066;-82
2022/04/25 03:05:36;;;;;;;28.25;13.63;;;7.70;99.90;;;;;;4803399;28;3012777;-82
2022/04/25 03:08:10;;;;;;;23.60;12.75;;;7.80;99.90;;;;;;4989622;28;20054;-83
2022/04/25 03:10:42;;;;;;;22.25;12.48;;;7.80;99.90;;;;;;4925346;28;227910;-82
2022/04/25 03:13:15;;;;;;;22.85;12.85;;;7.80;99.90;;;;;;4979231;28;20062;-83
2022/04/25 03:15:47;;;;;;;21.23;12.55;;;7.80;99.90;;;;;;4917184;28;75910;-82
2022/04/25 03:18:19;;;;;;;20.45;11.52;;;7.80;99.90;;;;;;4992438;28;20046;-82
2022/04/25 03:20:52;;;;;;;21.80;11.30;;;7.90;99.90;;;;;;4948350;28;93877;-82
2022/04/25 03:23:36;;;;;;;20.02;11.27;;;7.90;99.90;;;;;;4968159;28;20046;-82
2022/04/25 03:26:05;;;;;;;21.48;10.93;;;7.90;99.90;;;;;;4936807;28;91389;-81
2022/04/25 03:28:32;;;;;;;19.48;10.90;;;7.80;99.90;;;;;;4963850;28;20059;-83
2022/04/25 03:31:12;;;;;;;20.67;11.30;;;7.90;99.90;;;;;;4952895;28;39075;-81
2022/04/25 03:33:39;;;;;;;20.33;11.05;;;7.90;99.90;;;;;;4962406;28;20066;-82
2022/04/25 03:36:06;;;;;;;17.70;10.10;;;7.90;99.90;;;;;;4957662;28;89481;-83
2022/04/25 03:38:32;;;;;;;19.70;10.77;;;7.90;99.90;;;;;;4943120;28;20065;-83
2022/04/25 03:41:09;;;;;;;20.75;10.57;;;7.90;99.90;;;;;;4946975;28;106275;-82
2022/04/25 03:43:40;;;;;;;18.88;11.18;;;7.90;99.90;;;;;;4959740;28;20058;-82
2022/04/25 03:46:15;;;;;;;19.13;11.10;;;7.90;99.90;;;;;;4942402;28;127185;-81
2022/04/25 03:48:44;;;;;;;18.38;11.30;;;8.00;99.90;;;;;;4969821;28;20050;-81
2022/04/25 03:51:10;;;;;;;19.48;11.20;;;7.90;99.90;;;;;;4969576;28;160538;-82
2022/04/25 03:53:39;;;;;;;19.52;11.35;;;7.90;99.90;;;;;;4946802;28;20052;-83
2022/04/25 03:58:56;;;;;;;21.60;12.02;;;7.90;99.90;;;;;;4962996;28;20035;-85
2022/04/25 04:01:37;;;;;;;22.73;12.23;;;7.90;99.90;;;;;;4970431;28;20035;-82
2022/04/25 04:04:16;;;;;;;19.36;12.06;;;7.90;99.90;;;;;;4805127;28;6073546;-83
2022/04/25 04:06:45;;;;;;;20.10;12.07;;;7.90;99.90;;;;;;4980405;28;20068;-81
2022/04/25 04:12:17;;;;;;;19.80;10.98;;;7.90;99.90;;;;;;5009618;28;20061;-82
2022/04/25 04:14:47;;;;;;;21.05;12.10;;;7.90;99.90;;;;;;4932906;28;106505;-82
2022/04/25 04:17:23;;;;;;;18.98;10.60;;;7.90;99.90;;;;;;4976334;28;20049;-82
2022/04/25 04:19:56;;;;;;;20.85;11.68;;;8.00;99.90;;;;;;4924937;28;112794;-81
2022/04/25 04:22:29;;;;;;;19.92;11.98;;;8.00;99.90;;;;;;4970069;28;20057;-83
2022/04/25 04:25:27;;;;;;;19.95;11.32;;;7.90;99.90;;;;;;4927724;28;54913;-82
2022/04/25 04:28:09;;;;;;;22.33;11.73;;;7.90;99.90;;;;;;4980199;28;20053;-84
2022/04/25 04:30:36;;;;;;;17.85;10.43;;;7.90;99.90;;;;;;4949360;28;82899;-83
2022/04/25 04:33:27;;;;;;;19.13;11.30;;;7.80;99.90;;;;;;4989596;28;20058;-81
2022/04/25 04:38:50;;;;;;;17.92;11.90;;;7.90;99.90;;;;;;4985429;28;20055;-82
2022/04/25 04:41:26;;;;;;;21.45;11.65;;;7.80;99.90;;;;;;4973327;28;20073;-81
2022/04/25 04:44:08;;;;;;;19.08;11.75;;;7.90;99.90;;;;;;4941528;28;61223;-81
2022/04/25 04:46:34;;;;;;;17.83;11.15;;;7.90;99.90;;;;;;4959622;28;20069;-82
2022/04/25 04:49:04;;;;;;;17.67;11.40;;;7.90;99.90;;;;;;4952387;28;20109;-81
2022/04/25 04:51:36;;;;;;;19.35;11.48;;;7.90;99.90;;;;;;4985012;28;20048;-82
2022/04/25 04:54:03;;;;;;;20.67;11.02;;;7.90;99.90;;;;;;4949489;28;65626;-83
2022/04/25 04:56:33;;;;;;;22.85;11.73;;;8.00;99.90;;;;;;4962210;28;20099;-82
2022/04/25 04:59:03;;;;;;;19.20;11.13;;;8.00;99.90;;;;;;4956735;28;96803;-84
2022/04/25 05:01:34;;;;;;;18.77;11.55;;;8.00;99.90;;;;;;4975488;28;20840;-83
2022/04/25 05:04:03;;;;;;;19.58;11.00;;;8.00;99.90;;;;;;4909690;28;249393;-82
2022/04/25 05:06:40;;;;;;;16.92;10.20;;;8.00;99.90;;;;;;4962804;28;20058;-82
2022/04/25 05:09:18;;;;;;;18.77;10.65;;;8.00;99.90;;;;;;4930228;28;130308;-82
2022/04/25 05:11:48;;;;;;;18.13;10.43;;;8.00;99.90;;;;;;4924424;29;20079;-83
2022/04/25 05:14:14;;;;;;;15.45;9.70;;;8.00;99.90;;;;;;4878031;28;186141;-80
2022/04/25 05:16:46;;;;;;;16.00;9.30;;;8.00;99.90;;;;;;4932382;29;20060;-82
2022/04/25 05:19:21;;;;;;;19.80;9.35;;;8.00;99.90;;;;;;4780586;28;3015550;-83
2022/04/25 05:21:50;;;;;;;15.27;9.15;;;8.00;99.90;;;;;;4915792;29;20043;-81
2022/04/25 05:24:20;;;;;;;18.38;9.23;;;7.90;99.90;;;;;;4866709;29;222693;-82
2022/04/25 05:26:46;;;;;;;17.67;8.70;;;8.00;99.90;;;;;;4885588;29;20059;-81
2022/04/25 05:29:15;;;;;;;18.75;9.30;;;8.00;99.90;;;;;;4871462;29;129871;-79
2022/04/25 05:31:42;;;;;;;18.95;9.55;;;8.00;99.90;;;;;;4892972;29;20055;-80
2022/04/25 05:34:09;;;;;;;20.60;9.38;;;8.00;99.90;;;;;;4876034;29;112027;-83
2022/04/25 05:36:35;;;;;;;17.75;9.38;;;8.00;99.90;;;;;;4899407;29;20047;-82
2022/04/25 05:39:01;;;;;;;21.25;9.93;;;8.00;99.90;;;;;;4862430;29;108831;-81
2022/04/25 05:41:28;;;;;;;19.25;9.85;;;8.10;99.90;;;;;;4915196;29;20060;-83
2022/04/25 05:44:02;;;;;;;21.17;9.43;;;8.10;99.90;;;;;;4930849;28;46043;-81
2022/04/25 05:46:33;;;;;;;15.75;9.50;;;8.00;99.90;;;;;;4953955;28;20065;-83
2022/04/25 05:52:26;;;;;;;17.55;9.55;;;8.00;99.90;;;;;;4953622;28;20058;-84
2022/04/25 05:58:27;;;;;;;17.60;9.55;;;8.00;99.90;;;;;;4927327;29;20055;-82
2022/04/25 06:05:01;;;;;;;19.45;10.23;;;8.00;99.90;;;;;;4504966;29;10003123;-83
2022/04/25 06:08:14;;;;;;;19.00;9.73;;;8.00;99.90;;;;;;4889170;29;20043;-84
2022/04/25 06:11:28;;;;;;;;;;;;;;;;;;;;;
2022/04/25 06:14:51;;;;;;;20.50;8.43;;;8.10;99.90;;;;;;4577421;29;10004554;-84
2022/04/25 06:18:00;;;;;;;16.73;9.50;;;8.10;99.90;;;;;;4789485;29;20280;-84
2022/04/25 06:20:45;;;;;;;18.88;9.32;;;8.20;99.90;;;;;;4658447;29;2976831;-84
2022/04/25 06:25:50;;;;;;;15.10;8.70;;;8.30;99.90;;;;;;4947557;23;252302;-80
2022/04/25 06:28:17;;;;;;;20.52;10.07;;;8.40;99.90;;;;;;4957600;28;20046;-80
2022/04/25 06:30:44;;;;;;;16.30;9.50;;;8.40;99.90;;;;;;4914039;28;208119;-83
2022/04/25 06:33:10;;;;;;;17.48;9.02;;;8.50;99.90;;;;;;4989209;28;20054;-80
2022/04/25 06:35:37;;;;;;;16.13;8.57;;;8.50;99.90;;;;;;4924375;28;180590;-80
2022/04/25 06:38:03;;;;;;;15.23;8.50;;;8.50;99.90;;;;;;4981431;28;20299;-81
2022/04/25 06:40:31;;;;;;;15.07;8.50;;;8.50;99.90;;;;;;4926046;28;233993;-81
2022/04/25 06:42:59;;;;;;;16.92;8.52;;;8.60;99.90;;;;;;4979115;28;20059;-80
2022/04/25 06:45:28;;;;;;;17.60;8.25;;;8.70;99.90;;;;;;4943326;28;110780;-80
2022/04/25 06:47:54;;;;;;;15.60;8.10;;;8.60;99.90;;;;;;4979581;28;20053;-81
2022/04/25 06:50:20;;;;;;;14.48;8.48;;;8.60;99.90;;;;;;4925906;28;20085;-81
2022/04/25 06:52:46;;;;;;;15.35;8.32;;;8.60;99.90;;;;;;4969766;28;20085;-81
2022/04/25 06:55:12;;;;;;;16.70;8.35;;;8.50;99.90;;;;;;4937093;28;147399;-80
2022/04/25 06:57:39;;;;;;;17.27;8.48;;;8.60;99.90;;;;;;4958811;28;20049;-80
2022/04/25 07:00:11;;;;;;;15.23;8.50;;;8.60;99.90;;;;;;4933264;28;168512;-80
2022/04/25 07:02:38;;;;;;;17.60;8.70;;;8.60;99.90;;;;;;4962381;28;20054;-80
2022/04/25 07:05:06;;;;;;;17.23;8.40;;;8.60;99.90;;;;;;4914255;28;136647;-80
2022/04/25 07:07:33;;;;;;;16.02;8.23;;;8.60;99.90;;;;;;4974283;28;20055;-80
2022/04/25 07:09:59;;;;;;;16.58;8.73;;;8.60;99.90;;;;;;4936348;28;88612;-80
2022/04/25 07:12:27;;;;;;;18.85;9.25;;;8.60;99.90;;;;;;4978369;28;20058;-80
2022/04/25 07:14:53;;;;;;;21.67;8.48;;;8.60;99.90;;;;;;4930306;28;154328;-79
2022/04/25 07:17:22;;;;;;;17.20;8.30;;;8.60;99.90;;;;;;4981181;28;20058;-82
2022/04/25 07:19:48;;;;;;;17.75;8.65;;;8.60;99.90;;;;;;4944698;28;80374;-80
2022/04/25 07:30:40;;;;;;;16.00;7.72;;;8.50;99.90;;;;;;4933650;28;20069;-81
2022/04/25 07:33:06;;;;;;;17.92;7.97;;;8.50;99.90;;;;;;4970666;28;20046;-80
2022/04/25 07:35:34;;;;;;;20.33;8.88;;;8.50;99.90;;;;;;4937429;28;153390;-80
2022/04/25 07:38:00;;;;;;;18.95;8.90;;;8.50;99.90;;;;;;4967836;28;20049;-81
2022/04/25 07:40:27;;;;;;;17.52;8.30;;;8.50;99.90;;;;;;4938632;28;222351;-81
2022/04/25 07:42:55;;;;;;;18.52;8.88;;;8.50;99.90;;;;;;4979067;28;20415;-80
2022/04/25 07:45:24;;;;;;;16.88;8.23;;;8.50;99.90;;;;;;4926464;28;216592;-81
2022/04/25 07:47:51;;;;;;;17.33;8.52;;;8.60;99.90;;;;;;4980724;28;20047;-81
2022/04/25 07:50:23;;;;;;;15.75;8.65;;;8.60;99.90;;;;;;4928278;28;241089;-81
2022/04/25 07:52:50;;;;;;;;;;;8.60;99.90;;;;;;4993912;28;20051;-80
2022/04/25 07:55:16;;;;;;;17.60;8.48;;;8.60;99.90;;;;;;4924683;28;231475;-81
2022/04/25 07:57:43;;;;;;;14.55;8.02;;;8.70;99.90;;;;;;4961635;28;20066;-81
2022/04/25 08:00:09;;;;;;;16.85;8.68;;;8.60;99.90;;;;;;4930560;28;193936;-81
2022/04/25 08:02:35;;;;;;;21.02;9.57;;;8.60;99.90;;;;;;4997483;28;20042;-80
2022/04/25 08:05:02;;;;;;;19.95;9.13;;;8.60;99.90;;;;;;4918591;28;118925;-81
2022/04/25 08:07:29;;;;;;;17.35;8.90;;;8.60;99.90;;;;;;4973362;28;20062;-80
2022/04/25 08:09:58;;;;;;;18.10;9.23;;;8.60;99.90;;;;;;4907670;28;200201;-81
2022/04/25 08:18:04;;;;;;;19.33;10.38;;;8.70;99.90;;;;;;4983502;28;20394;-81
2022/04/25 08:20:36;;;;;;;18.35;9.40;;;8.70;99.90;;;;;;4937927;28;20066;-80
2022/04/25 08:23:11;;;;;;;20.85;10.02;;;8.70;99.90;;;;;;4978473;28;20062;-81
2022/04/25 08:25:41;;;;;;;22.45;10.30;;;8.80;99.90;;;;;;4941419;28;47883;-81
2022/04/25 08:28:14;;;;;;;19.58;9.57;;;8.70;99.90;;;;;;4985793;28;20070;-81
2022/04/25 08:30:43;;;;;;;20.60;9.70;;;8.70;99.90;;;;;;4926365;28;28120;-80
2022/04/25 08:33:11;;;;;;;21.73;9.48;;;8.80;99.90;;;;;;4972985;28;20046;-80
2022/04/25 08:35:37;;;;;;;23.08;10.20;;;8.80;99.90;;;;;;4934231;28;149866;-81
2022/04/25 08:38:03;;;;;;;20.48;10.57;;;8.90;99.90;;;;;;4960741;28;20054;-81
2022/04/25 08:40:32;;;;;;;20.40;11.20;;;8.90;99.90;;;;;;4941129;28;150503;-81
2022/04/25 08:43:01;;;;;;;17.63;10.25;;;9.00;99.90;;;;;;4986629;28;20051;-80
2022/04/25 08:45:31;;;;;;;21.15;10.60;;;8.90;99.90;;;;;;4930314;28;234501;-80
2022/04/25 08:48:01;;;;;;;19.85;11.50;;;8.90;99.90;;;;;;4971473;28;20077;-80
2022/04/25 08:50:29;;;;;;;23.55;11.40;;;8.80;99.90;;;;;;4937122;28;148406;-81
2022/04/25 08:52:59;;;;;;;21.83;11.55;;;8.80;99.90;;;;;;4978216;28;20046;-81
2022/04/25 08:55:26;;;;;;;20.88;11.10;;;8.80;99.90;;;;;;4924264;28;202818;-79
2022/04/25 08:57:56;;;;;;;17.95;10.88;;;8.80;99.90;;;;;;4981884;28;20157;-80
2022/04/25 09:00:23;;;;;;;22.83;11.00;;;8.80;99.90;;;;;;4946252;28;30477;-81
2022/04/25 09:02:54;;;;;;;20.02;10.35;;;8.80;99.90;;;;;;4966269;28;20065;-81
2022/04/25 09:05:21;;;;;;;20.63;10.70;;;8.90;99.90;;;;;;4916169;28;129312;-82
2022/04/25 09:07:47;;;;;;;19.10;10.38;;;8.90;99.90;;;;;;4965145;28;20054;-80
2022/04/25 09:10:16;;;;;;;19.30;10.52;;;8.90;99.90;;;;;;4936555;28;33038;-81
2022/04/25 09:12:47;;;;;;;21.33;10.32;;;9.00;99.90;;;;;;4975052;28;20065;-81
2022/04/25 09:15:21;;;;;;;21.65;11.07;;;8.90;99.90;;;;;;4934009;28;176748;-80
2022/04/25 09:17:47;;;;;;;18.42;10.43;;;8.90;99.90;;;;;;4996474;28;20528;-81
2022/04/25 09:20:13;;;;;;;18.08;10.15;;;8.80;99.90;;;;;;4933862;28;185190;-80
2022/04/25 09:22:40;;;;;;;20.17;9.30;;;8.80;99.90;;;;;;4978382;28;20050;-81
2022/04/25 09:25:12;;;;;;;22.27;9.60;;;8.80;99.90;;;;;;4926706;28;23309;-81
2022/04/25 09:27:43;;;;;;;16.60;8.82;;;8.70;99.90;;;;;;4983132;28;20053;-80
2022/04/25 09:30:16;;;;;;;16.40;10.18;;;8.70;99.90;;;;;;4932610;28;228239;-80
2022/04/25 09:32:47;;;;;;;18.67;8.90;;;8.70;99.90;;;;;;4961095;28;20412;-80
2022/04/25 09:35:29;;;;;;;18.63;9.13;;;8.80;99.90;;;;;;4935833;28;182352;-80
2022/04/25 09:37:57;;;;;;;16.42;8.90;;;8.80;99.90;;;;;;4975005;28;20148;-78
2022/04/25 09:40:28;;;;;;;17.85;9.35;;;8.80;99.90;;;;;;4936556;28;188806;-79
2022/04/25 09:43:08;;;;;;;15.80;8.18;;;8.90;99.90;;;;;;4991298;28;20064;-78
2022/04/25 09:45:39;;;;;;;15.82;7.85;;;9.00;99.90;;;;;;4923907;28;73953;-79
2022/04/25 09:48:16;;;;;;;16.08;7.65;;;9.00;99.90;;;;;;4957040;28;20062;-80
2022/04/25 09:50:46;;;;;;;15.23;8.18;;;9.10;99.90;;;;;;4903752;28;214474;-80
2022/04/25 09:53:15;;;;;;;16.80;7.50;;;9.00;99.90;;;;;;4979546;28;20053;-79
2022/04/25 09:55:41;;;;;;;17.67;7.55;;;9.10;99.90;;;;;;4823101;28;2992331;-80
2022/04/25 09:58:20;;;;;;;15.68;6.80;;;9.10;99.90;;;;;;4982022;28;20062;-80
2022/04/25 10:00:47;;;;;;;17.98;7.00;;;9.10;99.90;;;;;;4914421;28;180245;-79
2022/04/25 10:03:15;;;;;;;14.98;6.63;;;9.10;99.90;;;;;;4994424;28;20065;-79
2022/04/25 10:05:52;;;;;;;15.80;7.30;;;9.10;99.90;;;;;;4915489;28;119820;-80
2022/04/25 10:08:19;;;;;;;14.68;6.72;;;9.10;99.90;;;;;;4957190;28;20515;-81
2022/04/25 10:10:57;;;;;;;12.32;6.38;;;9.10;99.90;;;;;;4958157;28;200529;-79
2022/04/25 10:13:26;;;;;;;14.82;7.65;;;9.10;99.90;;;;;;4945691;28;20058;-79
2022/04/25 10:15:56;;;;;;;16.23;7.55;;;9.10;99.90;;;;;;4951008;28;141015;-79
2022/04/25 10:18:27;;;;;;;15.07;7.65;;;9.20;99.90;;;;;;4944104;28;20726;-79
2022/04/25 10:20:53;;;;;;;16.45;7.20;;;9.30;99.90;;;;;;4959005;28;115681;-78
2022/04/25 10:23:19;;;;;;;15.30;7.70;;;9.30;99.90;;;;;;4952949;28;20516;-79
2022/04/25 10:25:55;;;;;;;15.02;7.20;;;9.40;99.90;;;;;;4963485;28;125332;-80
2022/04/25 10:28:29;;;;;;;16.67;7.00;;;9.40;99.90;;;;;;4965677;28;20061;-80
2022/04/25 10:31:10;;;;;;;15.98;6.82;;;9.50;99.90;;;;;;4958061;28;130545;-79
2022/04/25 10:33:59;;;;;;;15.15;7.20;;;9.70;99.90;;;;;;4947762;28;20483;-80
2022/04/25 10:36:37;;;;;;;14.68;7.20;;;9.80;99.90;;;;;;4945439;28;20046;-79
2022/04/25 10:39:31;;;;;;;13.00;7.15;;;10.00;99.90;;;;;;4942871;28;255312;-78
2022/04/25 10:44:47;;;;;;;12.25;6.85;;;10.50;99.90;;;;;;4940163;28;115338;-80
2022/04/25 10:47:24;;;;;;;13.13;6.80;;;10.70;99.90;;;;;;4969235;28;20051;-80
2022/04/25 10:49:53;;;;;;;15.43;6.47;;;11.00;99.90;;;;;;4919585;28;93403;-80
2022/04/25 10:55:23;;;;;;;12.65;6.22;;;11.30;99.90;;;;;;4926121;28;34321;-80
2022/04/25 10:58:05;;;;;;;12.45;6.28;;;11.60;99.90;;;;;;4992021;28;20054;-79
2022/04/25 11:00:37;;;;;;;12.70;6.28;;;11.70;99.90;;;;;;4929827;28;227922;-79
2022/04/25 11:03:06;;;;;;;12.35;5.72;;;11.80;99.90;;;;;;4976650;28;20540;-79
2022/04/25 11:05:37;;;;;;;14.77;5.65;;;11.80;99.90;;;;;;4922460;28;147215;-81
2022/04/25 11:08:33;;;;;;;13.20;6.35;;;11.80;99.90;;;;;;4995181;28;20061;-80
2022/04/25 11:11:01;;;;;;;14.77;6.07;;;11.80;99.90;;;;;;4916097;28;219499;-79
2022/04/25 11:13:50;;;;;;;12.82;6.00;;;11.80;99.90;;;;;;4962428;28;20054;-80
2022/04/25 11:16:23;;;;;;;13.98;6.30;;;11.80;99.90;;;;;;4957620;28;70075;-80
2022/04/25 11:19:08;;;;;;;13.30;6.40;;;11.80;99.90;;;;;;4952005;28;20046;-80
2022/04/25 11:21:45;;;;;;;13.15;5.82;;;11.90;99.90;;;;;;4964275;28;20047;-80
2022/04/25 11:24:28;;;;;;;13.50;6.20;;;12.00;99.90;;;;;;4956417;28;85736;-81
2022/04/25 11:26:57;;;;;;;15.52;6.13;;;12.20;99.90;;;;;;4975888;28;20327;-80
2022/04/25 11:29:23;;;;;;;13.00;6.10;;;12.20;99.90;;;;;;4941925;28;20050;-80
2022/04/25 11:31:49;;;;;;;14.63;6.43;;;12.10;99.90;;;;;;4979040;28;20076;-80
2022/04/25 11:34:21;;;;;;;13.20;6.20;;;12.20;99.90;;;;;;4945785;28;45565;-80
2022/04/25 11:36:47;;;;;;;;;;;12.30;99.90;;;;;;4981263;28;20061;-80
2022/04/25 11:41:59;;;;;;;14.25;6.70;;;12.40;99.90;;;;;;4990389;28;20069;-79
2022/04/25 11:44:25;;;;;;;12.93;6.47;;;12.40;99.90;;;;;;4948877;28;183638;-79
2022/04/25 11:46:53;;;;;;;13.02;6.40;;;12.50;99.90;;;;;;4991889;28;20118;-79
2022/04/25 11:49:32;;;;;;;14.07;6.35;;;12.60;99.90;;;;;;4842753;28;3002050;-80
2022/04/25 11:52:01;;;;;;;12.23;6.32;;;12.70;99.90;;;;;;4982898;28;20436;-80
2022/04/25 11:54:33;;;;;;;14.05;6.50;;;12.90;99.90;;;;;;4939996;28;167015;-81
2022/04/25 11:57:03;;;;;;;14.57;6.43;;;13.10;99.90;;;;;;4964446;28;20058;-80
2022/04/25 11:59:30;;;;;;;13.50;5.63;;;13.20;99.90;;;;;;4938111;28;206344;-80
2022/04/25 12:01:59;;;;;;;14.80;6.88;;;13.30;99.90;;;;;;4970687;28;20061;-79
2022/04/25 12:04:29;;;;;;;14.48;6.90;;;13.30;99.90;;;;;;4924693;28;273374;-79
2022/04/25 12:07:09;;;;;;;13.35;6.13;;;13.40;99.90;;;;;;4977827;28;20103;-80
2022/04/25 12:15:35;;;;;;;12.10;6.13;;;13.90;99.90;;;;;;4946227;28;22848;-78
2022/04/25 12:18:14;;;;;;;12.02;6.30;;;13.90;99.90;;;;;;4989713;28;20065;-79
2022/04/25 12:20:42;;;;;;;11.63;6.10;;;13.90;99.90;;;;;;4895785;28;205474;-80
2022/04/25 12:23:10;;;;;;;13.73;6.45;;;13.80;99.90;;;;;;4994563;28;20054;-81
2022/04/25 12:25:41;;;;;;;14.38;6.55;;;13.80;99.90;;;;;;4935471;28;121390;-81
2022/04/25 12:28:13;;;;;;;;;;;14.00;99.90;;;;;;4979754;28;20054;-79
2022/04/25 12:30:57;;;;;;;13.38;6.07;;;14.40;99.90;;;;;;4928758;28;213372;-80
2022/04/25 12:33:25;;;;;;;13.88;6.60;;;14.70;99.90;;;;;;4949328;28;20050;-80
2022/04/25 12:36:10;;;;;;;11.77;6.20;;;14.80;99.90;;;;;;4952854;28;114215;-79
2022/04/25 12:38:51;;;;;;;12.82;6.50;;;14.80;99.90;;;;;;4950651;28;20081;-80
2022/04/25 12:41:43;;;;;;;16.38;7.18;;;14.80;99.90;;;;;;4971385;28;167483;-80
2022/04/25 12:44:10;;;;;;;12.75;6.40;;;14.90;99.90;;;;;;4944342;28;137326;-80
2022/04/25 12:46:44;;;;;;;13.00;7.03;;;14.90;99.90;;;;;;4978181;28;20047;-80
2022/04/25 12:49:17;;;;;;;12.25;6.10;;;15.00;99.90;;;;;;4932631;28;74356;-79
2022/04/25 12:51:52;;;;;;;14.27;6.50;;;15.30;99.90;;;;;;4946112;28;20078;-80
2022/04/25 12:54:32;;;;;;;12.80;6.60;;;15.80;99.90;;;;;;4933298;28;148098;-80
2022/04/25 12:57:15;;;;;;;11.90;5.75;;;16.30;99.90;;;;;;4971418;28;20058;-80
2022/04/25 12:59:44;;;;;;;11.32;6.13;;;17.10;99.90;;;;;;4939476;28;20051;-80
2022/04/25 13:02:17;;;;;;;14.00;5.97;;;17.30;99.90;;;;;;4967654;28;20081;-80
2022/04/25 13:04:54;;;;;;;12.30;6.13;;;17.10;99.90;;;;;;4919397;28;175255;-80
2022/04/25 13:07:28;;;;;;;12.20;6.13;;;17.00;99.70;;;;;;4967523;28;20062;-80
2022/04/25 13:10:18;;;;;;;11.82;5.80;;;16.90;98.60;;;;;;4929579;28;95081;-80
2022/04/25 13:12:53;;;;;;;14.93;5.90;;;16.70;99.30;;;;;;4974389;28;20065;-80
2022/04/25 13:15:21;;;;;;;11.07;5.93;;;16.40;98.60;;;;;;4917665;28;81744;-81
2022/04/25 13:17:48;;;;;;;11.23;5.72;;;16.10;99.00;;;;;;4973156;28;20058;-79
2022/04/25 13:20:20;;;;;;;16.08;6.38;;;15.90;99.30;;;;;;4923769;28;120610;-79
2022/04/25 13:22:48;;;;;;;12.02;6.10;;;15.60;99.00;;;;;;4976346;28;20062;-80
2022/04/25 13:25:18;;;;;;;13.20;6.40;;;15.30;99.10;;;;;;4927586;28;102990;-81
2022/04/25 13:27:45;;;;;;;13.80;5.78;;;15.10;99.50;;;;;;4977245;28;20074;-79
2022/04/25 13:30:13;;;;;;;12.90;6.15;;;15.00;99.80;;;;;;4947105;28;37220;-79
2022/04/25 13:32:45;;;;;;;12.93;6.68;;;14.80;99.90;;;;;;4972816;28;20055;-79
2022/04/25 13:35:18;;;;;;;11.82;6.07;;;14.70;99.90;;;;;;4924093;28;28378;-80
2022/04/25 13:37:47;;;;;;;12.50;6.20;;;14.60;99.90;;;;;;4994735;28;20046;-80
2022/04/25 13:40:14;;;;;;;12.23;5.82;;;14.50;99.90;;;;;;4923379;28;181218;-80
2022/04/25 13:42:42;;;;;;;12.02;6.05;;;14.50;99.90;;;;;;4959344;28;20057;-80
2022/04/25 13:45:08;;;;;;;13.40;6.00;;;14.40;99.90;;;;;;4928761;28;171539;-79
2022/04/25 13:47:35;;;;;;;17.13;6.13;;;14.40;99.90;;;;;;4966196;28;20050;-79
2022/04/25 13:50:01;;;;;;;11.18;5.40;;;14.30;99.90;;;;;;4929026;28;67693;-79
2022/04/25 13:52:27;;;;;;;14.07;6.05;;;14.20;99.90;;;;;;4970330;28;20050;-79
2022/04/25 13:54:53;;;;;;;11.23;5.60;;;14.20;99.90;;;;;;4932851;28;99740;-79
2022/04/25 13:57:20;;;;;;;12.68;5.97;;;14.10;99.90;;;;;;4969769;28;20077;-79
2022/04/25 13:59:46;;;;;;;12.05;5.80;;;14.10;99.90;;;;;;4927393;28;179373;-79